Flight Track Log - Related Links

Times and Time Zones

All times are in EDT time to prevent confusion due to time zone crossing. See the UAL1062 flight status page for this flight to view local times or setup timezone preferences in your user account.

Time Position Orientation Groundspeed Altitude Reporting Facility
EDT Latitude Longitude Course Direction KTS MPH feet Rate Location/Type
Fri 04:56:20 PM 29.9554 -95.3372 143° Southeast 182 209 800  Level FlightAware ADS-B
Fri 04:56:23 PM 29.9532 -95.3349 138° Southeast 183 211 900 2,143 Climbing FlightAware ADS-B
Fri 04:56:34 PM 29.9471 -95.3267 131° Southeast 189 217 1,300 1,714 Climbing FlightAware ADS-B
Fri 04:56:51 PM 29.9372 -95.3126 129° Southeast 205 236 1,700 1,355 Climbing FlightAware ADS-B
Fri 04:57:05 PM 29.9279 -95.2995 129° Southeast 233 268 2,000 2,069 Climbing FlightAware ADS-B
Fri 04:57:20 PM 29.9172 -95.2845 129° Southeast 235 270 2,700 2,897 Climbing FlightAware ADS-B
Fri 04:57:34 PM 29.9073 -95.2704 129° Southeast 237 273 3,400 2,348 Climbing FlightAware ADS-B
Fri 04:57:43 PM 29.9011 -95.2616 129° Southeast 247 284 3,600 1,385 Climbing FlightAware ADS-B
Fri 04:58:00 PM 29.8884 -95.2434 129° Southeast 268 308 4,000 774 Climbing FlightAware ADS-B
Fri 04:58:14 PM 29.8771 -95.2276 130° Southeast 272 313 4,000  Level FlightAware ADS-B
Fri 04:58:29 PM 29.8653 -95.2114 130° Southeast 273 314 4,000  Level FlightAware ADS-B
Fri 04:58:40 PM 29.8562 -95.1985 129° Southeast 273 314 4,000  Level FlightAware ADS-B
Fri 04:58:51 PM 29.8477 -95.1861 128° Southeast 271 312 4,000  Level FlightAware ADS-B
Fri 04:58:55 PM 29.8448 -95.1811 124° Southeast 272 313 4,000 750 Level FlightAware ADS-B
Fri 04:58:59 PM 29.8426 -95.1757 115° Southeast 274 315 4,100 1,500 Climbing FlightAware ADS-B
Fri 04:59:03 PM 29.8411 -95.1711 111° Southeast 274 315 4,200 1,714 Climbing FlightAware ADS-B
Fri 04:59:06 PM 29.8399 -95.1663 106° East 274 315 4,300 2,333 Climbing FlightAware ADS-B
Fri 04:59:21 PM 29.8350 -95.1449 105° East 276 318 4,900 2,800 Climbing FlightAware ADS-B
Fri 04:59:36 PM 29.8301 -95.1231 105° East 277 319 5,700 3,086 Climbing FlightAware ADS-B
Fri 04:59:56 PM 29.8235 -95.0950 105° East 279 321 6,700 3,000 Climbing FlightAware ADS-B
Fri 05:00:00 PM 29.8227 -95.0901 101° East 278 320 6,900 3,750 Climbing FlightAware ADS-B
Fri 05:00:04 PM 29.8219 -95.0832 98° East 277 319 7,200 4,000 Climbing FlightAware ADS-B
Fri 05:00:09 PM 29.8214 -95.0758 94° East 277 319 7,500 3,000 Climbing FlightAware ADS-B
Fri 05:00:20 PM 29.8216 -95.0604 87° East 278 320 8,000 3,000 Climbing FlightAware ADS-B
Fri 05:00:35 PM 29.8231 -95.0379 86° East 279 321 8,800 2,318 Climbing FlightAware ADS-B
Fri 05:01:48 PM 29.8298 -94.9258 86° East 315 362 11,400 2,027 Climbing FlightAware ADS-B
Fri 05:04:20 PM 29.8455 -94.6422 86° East 380 437 16,400 1,967 Climbing FlightAware ADS-B
Fri 05:04:51 PM 29.8488 -94.5802 86° East 387 445 17,400 2,066 Climbing FlightAware ADS-B
Fri 05:05:21 PM 29.8521 -94.5169 87° East 392 451 18,500 1,978 Climbing FlightAware ADS-B
Fri 05:06:22 PM 29.8587 -94.3880 87° East 404 465 20,400 1,733 Climbing FlightAware ADS-B
Fri 05:06:51 PM 29.8617 -94.3253 87° East 413 475 21,100 1,400 Climbing FlightAware ADS-B
Fri 05:07:22 PM 29.8601 -94.2576 92° East 423 487 21,800 1,600 Climbing FlightAware ADS-B
Fri 05:08:51 PM 29.8544 -94.0545 92° East 436 502 24,300 1,500 Climbing FlightAware ADS-B
Fri 05:09:54 PM 29.8685 -93.9056 83° East 456 525 25,600 1,235 Climbing FlightAware ADS-B
Fri 05:10:33 PM 29.8786 -93.8109 83° East 464 534 26,400 1,315 Climbing FlightAware ADS-B
Fri 05:11:07 PM 29.8859 -93.7269 84° East 464 534 27,200 1,477 Climbing FlightAware ADS-B
Fri 05:11:38 PM 29.8834 -93.6495 92° East 467 537 28,000 1,268 Climbing FlightAware ADS-B
Fri 05:12:18 PM 29.8776 -93.5512 94° East 471 542 28,700 1,000 Climbing FlightAware ADS-B
Fri 05:12:38 PM 29.8740 -93.5013 95° East 476 548 29,000 840 Climbing FlightAware ADS-B
Fri 05:13:08 PM 29.8645 -93.4241 98° East 484 557 29,400 800 Climbing FlightAware ADS-B
Fri 05:13:38 PM 29.8548 -93.3463 98° East 491 565 29,800 762 Climbing FlightAware ADS-B
Fri 05:14:11 PM 29.8445 -93.2621 98° East 497 572 30,200 1,048 Climbing FlightAware ADS-B
Fri 05:14:41 PM 29.8360 -93.1814 97° East 497 572 30,900 1,350 Climbing FlightAware ADS-B
Fri 05:14:51 PM 29.8338 -93.1574 96° East 494 568 31,100 1,571 Climbing FlightAware ADS-B
Fri 05:15:23 PM 29.8358 -93.0735 88° East 494 568 32,000 1,636 Climbing FlightAware ADS-B
Fri 05:15:35 PM 29.8400 -93.0427 81° East 484 557 32,300 1,360 Climbing FlightAware ADS-B
Fri 05:16:38 PM 29.8803 -92.8907 73° East 473 544 33,700 953 Climbing FlightAware ADS-B
Fri 05:18:25 PM 29.9552 -92.6357 71° East 471 542 35,000 569 Climbing FlightAware ADS-B
Fri 05:18:55 PM 29.9758 -92.5650 71° East 468 539 35,000  Level FlightAware ADS-B
Fri 05:20:13 PM 30.0291 -92.3814 71° East 470 541 35,000  Level FlightAware ADS-B
Fri 05:22:57 PM 30.1415 -91.9885 72° East 474 545 35,000  Level FlightAware ADS-B
Fri 05:27:05 PM 30.3101 -91.3906 72° East 477 549 35,000  Level FlightAware ADS-B
Fri 05:27:45 PM 30.3370 -91.2950 72° East 477 549 35,000  Level FlightAware ADS-B
Fri 05:33:46 PM 30.5770 -90.4180 72° East 479 551 35,000  Level FlightAware ADS-B
Fri 05:34:23 PM 30.5980 -90.3410 72° East 479 551 35,000  Level FlightAware ADS-B
Fri 05:35:10 PM 30.6330 -90.2110 73° East 479 551 35,000  Level FlightAware ADS-B
Fri 05:35:52 PM 30.6610 -90.1070 73° East 479 551 35,000  Level FlightAware ADS-B
Fri 05:36:33 PM 30.6880 -90.0120 72° East 477 549 35,000  Level FlightAware ADS-B
Fri 05:37:19 PM 30.7340 -89.9020 64° Northeast 475 547 35,000  Level FlightAware ADS-B
Fri 05:37:58 PM 30.7730 -89.8140 63° Northeast 474 545 35,000  Level FlightAware ADS-B
Fri 05:38:40 PM 30.8150 -89.7180 63° Northeast 473 544 35,000  Level FlightAware ADS-B
Fri 05:39:26 PM 30.8610 -89.6120 63° Northeast 472 543 35,000  Level FlightAware ADS-B
Fri 05:40:08 PM 30.9010 -89.5190 63° Northeast 470 541 35,000  Level FlightAware ADS-B
Fri 05:40:49 PM 30.9370 -89.4360 63° Northeast 471 542 35,000  Level FlightAware ADS-B
Fri 05:41:30 PM 30.9820 -89.3310 63° Northeast 470 541 35,000  Level FlightAware ADS-B
Fri 05:42:12 PM 31.0200 -89.2420 63° Northeast 470 541 35,000  Level FlightAware ADS-B
Fri 05:42:55 PM 31.0610 -89.1460 63° Northeast 469 540 35,000  Level FlightAware ADS-B
Fri 05:43:51 PM 31.1160 -89.0160 64° Northeast 467 537 35,000  Level FlightAware ADS-B
Fri 05:44:30 PM 31.1550 -88.9260 63° Northeast 466 536 35,000  Level FlightAware ADS-B
Fri 05:45:14 PM 31.1970 -88.8270 64° Northeast 466 536 35,000  Level FlightAware ADS-B
Fri 05:45:54 PM 31.2160 -88.7810 64° Northeast 466 536 35,000  Level FlightAware ADS-B
Fri 05:46:38 PM 31.2760 -88.6380 64° Northeast 466 536 35,000  Level FlightAware ADS-B
Fri 05:47:20 PM 31.3090 -88.5610 63° Northeast 469 540 35,000  Level FlightAware ADS-B
Fri 05:48:00 PM 31.3560 -88.4490 64° Northeast 470 541 35,000  Level FlightAware ADS-B
Fri 05:48:44 PM 31.3960 -88.3530 64° Northeast 470 541 35,000  Level FlightAware ADS-B
Fri 05:49:26 PM 31.4370 -88.2550 64° Northeast 470 541 35,000  Level FlightAware ADS-B
Fri 05:50:08 PM 31.4780 -88.1580 64° Northeast 471 542 35,000  Level FlightAware ADS-B
Fri 05:50:52 PM 31.5190 -88.0580 64° Northeast 470 541 35,000  Level FlightAware ADS-B
Fri 05:52:01 PM 31.5770 -87.9170 64° Northeast 470 541 35,000  Level FlightAware ADS-B
Fri 05:52:36 PM 31.6060 -87.8490 63° Northeast 470 541 35,000  Level FlightAware ADS-B
Fri 05:53:20 PM 31.6540 -87.7310 64° Northeast 468 539 35,000  Level FlightAware ADS-B
Fri 05:54:09 PM 31.6940 -87.6350 64° Northeast 468 539 35,000  Level FlightAware ADS-B
Fri 05:54:45 PM 31.7230 -87.5650 64° Northeast 468 539 35,000  Level FlightAware ADS-B
Fri 05:55:27 PM 31.7570 -87.4840 64° Northeast 468 539 35,000  Level FlightAware ADS-B
Fri 05:56:15 PM 31.7950 -87.3900 65° Northeast 468 539 35,000  Level FlightAware ADS-B
Fri 05:56:50 PM 31.8230 -87.3220 64° Northeast 468 539 35,000  Level FlightAware ADS-B
Fri 05:57:37 PM 31.8610 -87.2310 64° Northeast 468 539 35,000  Level FlightAware ADS-B
Fri 05:58:13 PM 31.8900 -87.1600 64° Northeast 468 539 35,000  Level FlightAware ADS-B
Fri 05:59:01 PM 31.9290 -87.0670 64° Northeast 468 539 35,000  Level FlightAware ADS-B
Fri 05:59:37 PM 31.9580 -86.9970 64° Northeast 468 539 35,000  Level FlightAware ADS-B
Fri 06:00:39 PM 32.0080 -86.8760 64° Northeast 468 539 35,000  Level FlightAware ADS-B
Fri 06:01:17 PM 32.0390 -86.8020 64° Northeast 468 539 35,000  Level FlightAware ADS-B
Fri 06:01:55 PM 32.0690 -86.7270 65° Northeast 468 539 35,000  Level FlightAware ADS-B
Fri 06:02:42 PM 32.1070 -86.6360 64° Northeast 468 539 35,000  Level FlightAware ADS-B
Fri 06:07:00 PM 32.5030 -85.9040 57° Northeast 444 511 35,000  Level FlightAware ADS-B
Fri 06:07:40 PM 32.5520 -85.8300 52° Northeast 441 507 35,000 -811 Level FlightAware ADS-B
Fri 06:08:14 PM 32.5980 -85.7630 51° Northeast 440 506 34,000 -1,463 Descending FlightAware ADS-B
Fri 06:09:02 PM 32.6580 -85.6730 52° Northeast 446 513 33,000 -561 Descending FlightAware ADS-B
Fri 06:10:01 PM 32.7270 -85.5710 51° Northeast 452 520 33,000  Level FlightAware ADS-B
Fri 06:10:40 PM 32.7870 -85.4780 52° Northeast 462 532 33,000  Level FlightAware ADS-B
Fri 06:11:34 PM 32.8590 -85.3710 51° Northeast 462 532 33,000  Level FlightAware ADS-B
Fri 06:12:12 PM 32.9080 -85.2960 52° Northeast 462 532 33,000  Level FlightAware ADS-B
Fri 06:12:58 PM 32.9700 -85.2020 52° Northeast 462 532 33,000  Level FlightAware ADS-B
Fri 06:13:36 PM 33.0140 -85.1340 52° Northeast 461 531 33,000  Level FlightAware ADS-B
Fri 06:14:22 PM 33.0790 -85.0360 52° Northeast 462 532 33,000  Level FlightAware ADS-B
Fri 06:14:58 PM 33.1269 -84.9630 52° Northeast 461 531 33,000  Level FlightAware ADS-B
Fri 06:15:53 PM 33.1950 -84.8474 55° Northeast 458 527 33,000  Level FlightAware ADS-B
Fri 06:16:26 PM 33.2388 -84.7842 50° Northeast 455 524 33,000  Level FlightAware ADS-B
Fri 06:17:11 PM 33.2991 -84.6967 50° Northeast 454 522 33,000  Level FlightAware ADS-B
Fri 06:18:00 PM 33.3645 -84.6013 51° Northeast 453 521 33,000  Level FlightAware ADS-B
Fri 06:18:46 PM 33.4290 -84.5210 46° Northeast 443 510 33,000  Level FlightAware ADS-B
Fri 06:18:56 PM 33.4461 -84.5031 41° Northeast 444 511 33,000  Level FlightAware ADS-B
Fri 06:19:28 PM 33.4962 -84.4524 40° Northeast 445 512 33,000  Level FlightAware ADS-B
Fri 06:19:46 PM 33.5236 -84.4226 42° Northeast 450 518 33,000  Level FlightAware ADS-B
Fri 06:20:10 PM 33.5555 -84.3762 50° Northeast 457 526 33,000  Level FlightAware ADS-B
Fri 06:20:46 PM 33.6013 -84.3028 53° Northeast 457 526 33,000  Level FlightAware ADS-B
Fri 06:21:16 PM 33.6397 -84.2414 53° Northeast 458 527 33,000  Level FlightAware ADS-B
Fri 06:21:48 PM 33.6798 -84.1771 53° Northeast 458 527 33,000  Level FlightAware ADS-B
Fri 06:22:24 PM 33.7252 -84.1042 53° Northeast 458 527 33,000  Level FlightAware ADS-B
Fri 06:22:54 PM 33.7633 -84.0426 53° Northeast 455 524 33,000  Level FlightAware ADS-B
Fri 06:23:25 PM 33.8021 -83.9799 53° Northeast 451 519 33,000  Level FlightAware ADS-B
Fri 06:23:57 PM 33.8415 -83.9161 53° Northeast 449 517 33,000  Level FlightAware ADS-B
Fri 06:25:07 PM 33.9271 -83.7767 53° Northeast 448 516 33,000  Level FlightAware ADS-B
Fri 06:25:48 PM 33.9760 -83.6960 54° Northeast 446 513 33,000  Level FlightAware ADS-B
Fri 06:26:03 PM 33.9959 -83.6645 53° Northeast 446 513 33,000  Level FlightAware ADS-B
Fri 06:26:43 PM 34.0448 -83.5843 54° Northeast 446 513 33,000  Level FlightAware ADS-B
Fri 06:27:23 PM 34.0935 -83.5044 54° Northeast 446 513 33,000  Level FlightAware ADS-B
Fri 06:27:54 PM 34.1318 -83.4416 54° Northeast 446 513 33,000  Level FlightAware ADS-B
Fri 06:28:25 PM 34.1693 -83.3799 54° Northeast 446 513 33,000  Level FlightAware ADS-B
Fri 06:28:59 PM 34.2103 -83.3125 54° Northeast 446 513 33,000  Level FlightAware ADS-B
Fri 06:29:32 PM 34.2509 -83.2452 54° Northeast 447 514 33,000  Level FlightAware ADS-B
Fri 06:30:02 PM 34.2879 -83.1841 54° Northeast 447 514 33,000  Level FlightAware ADS-B
Fri 06:30:32 PM 34.3247 -83.1232 54° Northeast 447 514 33,000  Level FlightAware ADS-B
Fri 06:31:03 PM 34.3622 -83.0609 54° Northeast 448 516 33,000  Level FlightAware ADS-B
Fri 06:31:43 PM 34.4103 -82.9807 54° Northeast 448 516 33,000  Level FlightAware ADS-B
Fri 06:32:13 PM 34.4476 -82.9186 54° Northeast 449 517 33,000  Level FlightAware ADS-B
Fri 06:32:44 PM 34.4847 -82.8565 54° Northeast 447 514 33,000  Level FlightAware ADS-B
Fri 06:33:28 PM 34.5380 -82.7673 54° Northeast 447 514 33,000  Level FlightAware ADS-B
Fri 06:34:02 PM 34.5787 -82.6991 54° Northeast 446 513 33,000  Level FlightAware ADS-B
Fri 06:34:33 PM 34.6161 -82.6362 54° Northeast 447 514 33,000  Level FlightAware ADS-B
Fri 06:35:10 PM 34.6612 -82.5603 54° Northeast 446 513 33,000  Level FlightAware ADS-B
Fri 06:35:42 PM 34.7000 -82.4950 54° Northeast 444 511 33,000  Level FlightAware ADS-B
Fri 06:36:13 PM 34.7370 -82.4330 54° Northeast 444 511 33,000  Level FlightAware ADS-B
Fri 06:36:24 PM 34.7493 -82.4115 55° Northeast 443 510 33,000  Level FlightAware ADS-B
Fri 06:36:54 PM 34.7860 -82.3493 54° Northeast 442 509 33,000  Level FlightAware ADS-B
Fri 06:37:32 PM 34.8308 -82.2733 54° Northeast 441 507 33,000  Level FlightAware ADS-B
Fri 06:38:08 PM 34.8728 -82.2018 54° Northeast 441 507 33,000  Level FlightAware ADS-B
Fri 06:38:38 PM 34.9092 -82.1398 54° Northeast 440 506 33,000  Level FlightAware ADS-B
Fri 06:39:09 PM 34.9451 -82.0785 54° Northeast 440 506 33,000  Level FlightAware ADS-B
Fri 06:39:39 PM 34.9810 -82.0171 54° Northeast 440 506 33,000  Level FlightAware ADS-B
Fri 06:40:09 PM 35.0165 -81.9564 54° Northeast 440 506 33,000  Level FlightAware ADS-B
Fri 06:40:40 PM 35.0517 -81.8932 56° Northeast 444 511 33,000  Level FlightAware ADS-B
Fri 06:41:11 PM 35.0861 -81.8286 57° Northeast 443 510 33,000  Level FlightAware ADS-B
Fri 06:41:41 PM 35.1200 -81.7647 57° Northeast 443 510 33,000  Level FlightAware ADS-B
Fri 06:42:11 PM 35.1533 -81.7019 57° Northeast 442 509 33,000  Level FlightAware ADS-B
Fri 06:42:42 PM 35.1869 -81.6386 57° Northeast 443 510 33,000  Level FlightAware ADS-B
Fri 06:43:12 PM 35.2202 -81.5755 57° Northeast 444 511 33,000  Level FlightAware ADS-B
Fri 06:43:42 PM 35.2541 -81.5113 57° Northeast 444 511 33,000  Level FlightAware ADS-B
Fri 06:44:14 PM 35.2895 -81.4443 57° Northeast 440 506 33,000  Level FlightAware ADS-B
Fri 06:44:46 PM 35.3244 -81.3780 57° Northeast 440 506 33,000  Level FlightAware ADS-B
Fri 06:45:18 PM 35.3593 -81.3112 57° Northeast 440 506 33,000  Level FlightAware ADS-B
Fri 06:45:52 PM 35.3966 -81.2395 57° Northeast 441 507 33,000  Level FlightAware ADS-B
Fri 06:46:24 PM 35.4324 -81.1711 57° Northeast 442 509 33,000  Level FlightAware ADS-B
Fri 06:46:54 PM 35.4657 -81.1075 57° Northeast 442 509 33,000  Level FlightAware ADS-B
Fri 06:48:05 PM 35.5430 -80.9590 57° Northeast 441 507 33,000  Level FlightAware ADS-B
Fri 06:48:47 PM 35.5890 -80.8700 58° Northeast 441 507 33,000  Level FlightAware ADS-B
Fri 06:49:32 PM 35.6360 -80.7800 57° Northeast 442 509 33,000  Level FlightAware ADS-B
Fri 06:50:15 PM 35.6850 -80.6840 58° Northeast 443 510 33,000  Level FlightAware ADS-B
Fri 06:50:55 PM 35.7280 -80.6000 58° Northeast 438 504 33,000  Level FlightAware ADS-B
Fri 06:51:49 PM 35.7820 -80.4970 57° Northeast 436 502 33,000  Level FlightAware ADS-B
Fri 06:52:49 PM 35.8450 -80.3720 58° Northeast 438 504 33,000  Level FlightAware ADS-B
Fri 06:53:27 PM 35.8900 -80.2850 57° Northeast 437 503 33,000  Level FlightAware ADS-B
Fri 06:54:11 PM 35.9390 -80.1880 58° Northeast 439 505 33,000  Level FlightAware ADS-B
Fri 06:54:53 PM 35.9770 -80.1110 59° Northeast 439 505 33,000  Level FlightAware ADS-B
Fri 06:55:17 PM 35.9990 -80.0680 58° Northeast 439 505 33,000  Level FlightAware ADS-B
Fri 06:56:13 PM 36.0560 -79.9570 58° Northeast 439 505 33,000  Level FlightAware ADS-B
Fri 06:57:01 PM 36.0990 -79.8700 59° Northeast 439 505 33,000  Level FlightAware ADS-B
Fri 06:57:38 PM 36.1330 -79.8030 58° Northeast 439 505 33,000  Level FlightAware ADS-B
Fri 06:58:25 PM 36.1760 -79.7180 58° Northeast 439 505 33,000  Level FlightAware ADS-B
Fri 06:59:02 PM 36.2100 -79.6500 58° Northeast 439 505 33,000  Level FlightAware ADS-B
Fri 06:59:48 PM 36.2520 -79.5670 58° Northeast 439 505 33,000  Level FlightAware ADS-B
Fri 07:01:04 PM 36.3220 -79.4290 58° Northeast 439 505 33,000  Level FlightAware ADS-B
Fri 07:01:40 PM 36.3550 -79.3630 58° Northeast 439 505 33,000  Level FlightAware ADS-B
Fri 07:02:28 PM 36.3990 -79.2760 58° Northeast 439 505 33,000 -558 Level FlightAware ADS-B
Fri 07:03:06 PM 36.5410 -79.0960 45° Northeast 431 496 32,200 -2,074 Descending FlightAware ADS-B
Fri 07:03:49 PM 36.5850 -79.0160 56° Northeast 435 501 30,200 -2,188 Descending FlightAware ADS-B
Fri 07:04:31 PM 36.6320 -78.9310 55° Northeast 434 499 29,100 -868 Descending FlightAware ADS-B
Fri 07:05:05 PM 36.6640 -78.8710 56° Northeast 434 499 29,100 -2,692 Level FlightAware ADS-B
Fri 07:05:49 PM 36.7170 -78.7780 55° Northeast 433 498 25,600 -2,257 Descending FlightAware ADS-B
Fri 07:06:54 PM 36.7900 -78.6470 55° Northeast 398 458 25,000 -375 Descending FlightAware ADS-B
Fri 07:07:25 PM 36.8220 -78.5870 56° Northeast 396 456 25,000  Level FlightAware ADS-B
Fri 07:08:13 PM 36.8650 -78.5110 55° Northeast 396 456 25,000  Level FlightAware ADS-B
Fri 07:09:14 PM 36.9200 -78.4140 55° Northeast 396 456 25,000  Level FlightAware ADS-B
Fri 07:09:49 PM 36.9510 -78.3580 55° Northeast 396 456 25,000  Level FlightAware ADS-B
Fri 07:10:19 PM 37.0170 -78.2470 53° Northeast 394 453 25,000  Level FlightAware ADS-B
Fri 07:11:01 PM 37.0820 -78.1990 30° Northeast 393 452 25,000  Level FlightAware ADS-B
Fri 07:11:45 PM 37.1530 -78.1510 28° Northeast 396 456 25,000  Level FlightAware ADS-B
Fri 07:12:21 PM 37.1930 -78.1240 28° Northeast 396 456 25,000 -1,974 Level FlightAware ADS-B
Fri 07:13:01 PM 37.2730 -78.0700 28° Northeast 394 453 22,500 -2,143 Descending FlightAware ADS-B
Fri 07:13:45 PM 37.3430 -78.0230 28° Northeast 379 436 22,000 -244 Descending FlightAware ADS-B
Fri 07:14:23 PM 37.4030 -77.9810 29° Northeast 22,000  Level FlightAware ADS-B
Fri 07:15:04 PM 37.4690 -77.9360 28° Northeast 407 468 22,000  Level FlightAware ADS-B
Fri 07:15:52 PM 37.5400 -77.8880 28° Northeast 371 427 22,000 -207 Level FlightAware ADS-B
Fri 07:16:31 PM 37.6050 -77.8440 28° Northeast 359 413 21,700 -779 Descending FlightAware ADS-B
Fri 07:17:09 PM 37.6620 -77.8050 28° Northeast 354 407 21,000 -1,116 Descending FlightAware ADS-B
Fri 07:17:57 PM 37.7310 -77.7570 29° Northeast 355 409 20,100 -1,533 Descending FlightAware ADS-B
Fri 07:18:39 PM 37.7890 -77.7170 29° Northeast 349 402 18,700 -1,976 Descending FlightAware ADS-B
Fri 07:19:19 PM 37.8450 -77.6780 29° Northeast 342 394 17,400 -2,000 Descending FlightAware ADS-B
Fri 07:19:57 PM 37.8990 -77.6410 28° Northeast 336 387 16,100 -2,040 Descending FlightAware ADS-B
Fri 07:20:59 PM 37.9830 -77.5830 29° Northeast 326 375 14,000 -2,000 Descending FlightAware ADS-B
Fri 07:21:33 PM 38.0280 -77.5520 28° Northeast 322 371 12,900 -1,902 Descending FlightAware ADS-B
Fri 07:22:21 PM 38.0890 -77.5090 29° Northeast 315 362 11,400 -1,733 Descending FlightAware ADS-B
Fri 07:23:03 PM 38.1430 -77.4720 28° Northeast 305 351 10,300 -1,167 Descending FlightAware ADS-B
Fri 07:23:33 PM 38.1790 -77.4470 29° Northeast 281 323 10,000 -281 Descending FlightAware ADS-B
Fri 07:24:07 PM 38.2180 -77.4280 21° North 261 300 10,000  Level FlightAware ADS-B
Fri 07:24:27 PM 38.2360 -77.4310 353° North 261 300 10,000 -1,000 Level FlightAware ADS-B
Fri 07:24:55 PM 38.2760 -77.4370 353° North 262 302 9,200 -1,650 Descending FlightAware ADS-B
Fri 07:25:07 PM 38.2910 -77.4390 354° North 260 299 8,900 -1,364 Descending FlightAware ADS-B
Fri 07:25:39 PM 38.3270 -77.4440 354° North 255 293 8,200 -1,400 Descending FlightAware ADS-B
Fri 07:26:07 PM 38.3610 -77.4490 353° North 254 292 7,500 -1,529 Descending FlightAware ADS-B
Fri 07:26:30 PM 38.3880 -77.4530 353° North 257 296 6,900 -1,478 Descending FlightAware ADS-B
Fri 07:27:16 PM 38.4420 -77.4600 354° North 256 295 5,800 -1,455 Descending FlightAware ADS-B
Fri 07:27:36 PM 38.4660 -77.4640 353° North 254 292 5,300 -1,200 Descending FlightAware ADS-B
Fri 07:28:06 PM 38.5010 -77.4680 355° North 255 293 4,800 -871 Descending FlightAware ADS-B
Fri 07:28:38 PM 38.5390 -77.4680 360° North 255 293 4,400 -700 Descending FlightAware ADS-B
Fri 07:29:06 PM 38.5720 -77.4670 North 254 292 4,100 -517 Descending FlightAware ADS-B
Fri 07:29:36 PM 38.6060 -77.4660 North 250 288 3,900 -200 Descending FlightAware ADS-B
Fri 07:30:06 PM 38.6350 -77.4640 North 248 285 3,900 -636 Level FlightAware ADS-B
Fri 07:30:42 PM 38.6770 -77.4640 360° North 218 251 3,200 -779 Descending FlightAware ADS-B
Fri 07:31:23 PM 38.7090 -77.4630 North 215 247 2,900 -257 Descending FlightAware ADS-B
Fri 07:31:52 PM 38.7430 -77.4630 360° North 199 229 2,900  Level FlightAware ADS-B
Fri 07:32:22 PM 38.7710 -77.4620 North 196 226 2,900  Level FlightAware ADS-B
Fri 07:32:47 PM 38.7930 -77.4620 360° North 178 205 2,900 -327 Level FlightAware ADS-B
Fri 07:33:17 PM 38.8170 -77.4620 360° North 164 189 2,600 -632 Descending FlightAware ADS-B
Fri 07:33:44 PM 38.8340 -77.4610 North 163 188 2,300 -800 Descending FlightAware ADS-B
Fri 07:34:17 PM 38.8620 -77.4610 360° North 159 183 1,800 -828 Descending FlightAware ADS-B
Fri 07:34:42 PM 38.8800 -77.4610 360° North 144 166 1,500 -750 Descending FlightAware ADS-B
Fri 07:34:57 PM 38.8860 -77.4600 North 142 163 1,300 -800 Descending FlightAware ADS-B

Login

Don't have an account? Register now (free) for customized features, flight alerts, and more!